sensor_id;sensor_type;location;lat;lon;timestamp;pressure;altitude;pressure_sealevel;temperature;humidity
12077;BME280;12420;42.676;23.262;2023-05-21T00:00:16;94464.94;;;15.33;100.00
12077;BME280;12420;42.676;23.262;2023-05-21T00:02:43;94450.81;;;15.31;100.00
12077;BME280;12420;42.676;23.262;2023-05-21T00:05:09;94434.34;;;15.17;100.00
12077;BME280;12420;42.676;23.262;2023-05-21T00:07:37;94449.19;;;15.20;100.00
12077;BME280;12420;42.676;23.262;2023-05-21T00:10:06;94430.66;;;15.07;100.00
12077;BME280;12420;42.676;23.262;2023-05-21T00:12:34;94452.75;;;15.05;100.00
12077;BME280;12420;42.676;23.262;2023-05-21T00:15:01;94441.25;;;15.09;100.00
12077;BME280;12420;42.676;23.262;2023-05-21T00:17:28;94441.63;;;15.05;100.00
12077;BME280;12420;42.676;23.262;2023-05-21T00:19:55;94443.88;;;14.99;100.00
12077;BME280;12420;42.676;23.262;2023-05-21T00:22:22;94439.44;;;14.96;100.00
12077;BME280;12420;42.676;23.262;2023-05-21T00:24:49;94406.41;;;14.69;100.00
12077;BME280;12420;42.676;23.262;2023-05-21T00:27:17;94430.72;;;14.76;100.00
12077;BME280;12420;42.676;23.262;2023-05-21T00:29:44;94437.59;;;14.75;100.00
12077;BME280;12420;42.676;23.262;2023-05-21T00:32:11;94437.03;;;14.69;100.00
12077;BME280;12420;42.676;23.262;2023-05-21T00:34:37;94431.47;;;14.69;100.00
12077;BME280;12420;42.676;23.262;2023-05-21T00:37:04;94440.03;;;14.64;100.00
12077;BME280;12420;42.676;23.262;2023-05-21T00:39:31;94432.03;;;14.60;100.00
12077;BME280;12420;42.676;23.262;2023-05-21T00:41:58;94425.38;;;14.63;100.00
12077;BME280;12420;42.676;23.262;2023-05-21T00:44:26;94420.34;;;14.62;100.00
12077;BME280;12420;42.676;23.262;2023-05-21T00:46:59;94419.41;;;14.59;100.00
12077;BME280;12420;42.676;23.262;2023-05-21T00:49:26;94422.38;;;14.46;100.00
12077;BME280;12420;42.676;23.262;2023-05-21T00:51:53;94418.88;;;14.38;100.00
12077;BME280;12420;42.676;23.262;2023-05-21T00:54:21;94412.53;;;14.29;100.00
12077;BME280;12420;42.676;23.262;2023-05-21T00:56:49;94417.75;;;14.33;100.00
12077;BME280;12420;42.676;23.262;2023-05-21T00:59:16;94421.28;;;14.33;100.00
12077;BME280;12420;42.676;23.262;2023-05-21T01:01:45;94421.06;;;14.31;100.00
12077;BME280;12420;42.676;23.262;2023-05-21T01:04:18;94422.00;;;14.26;100.00
12077;BME280;12420;42.676;23.262;2023-05-21T01:06:45;94417.75;;;14.25;100.00
12077;BME280;12420;42.676;23.262;2023-05-21T01:09:12;94414.78;;;14.23;100.00
12077;BME280;12420;42.676;23.262;2023-05-21T01:11:40;94415.69;;;14.26;100.00
12077;BME280;12420;42.676;23.262;2023-05-21T01:14:09;94411.63;;;14.19;100.00
12077;BME280;12420;42.676;23.262;2023-05-21T01:16:37;94399.00;;;14.18;100.00
12077;BME280;12420;42.676;23.262;2023-05-21T01:19:07;94410.88;;;14.19;100.00
12077;BME280;12420;42.676;23.262;2023-05-21T01:21:36;94375.81;;;14.00;100.00
12077;BME280;12420;42.676;23.262;2023-05-21T01:24:08;94406.03;;;14.19;100.00
12077;BME280;12420;42.676;23.262;2023-05-21T01:26:34;94393.63;;;14.13;100.00
12077;BME280;12420;42.676;23.262;2023-05-21T01:29:03;94364.69;;;13.85;100.00
12077;BME280;12420;42.676;23.262;2023-05-21T01:34:27;94400.84;;;14.08;100.00
12077;BME280;12420;42.676;23.262;2023-05-21T01:37:09;94391.03;;;14.07;100.00
12077;BME280;12420;42.676;23.262;2023-05-21T01:39:42;94385.47;;;13.99;100.00
12077;BME280;12420;42.676;23.262;2023-05-21T01:42:10;94413.47;;;14.09;100.00
12077;BME280;12420;42.676;23.262;2023-05-21T01:44:38;94408.47;;;14.07;100.00
12077;BME280;12420;42.676;23.262;2023-05-21T01:47:06;94394.91;;;13.96;100.00
12077;BME280;12420;42.676;23.262;2023-05-21T01:49:33;94390.84;;;14.05;100.00
12077;BME280;12420;42.676;23.262;2023-05-21T01:52:00;94397.16;;;14.05;100.00
12077;BME280;12420;42.676;23.262;2023-05-21T01:54:27;94393.44;;;14.03;100.00
12077;BME280;12420;42.676;23.262;2023-05-21T01:56:55;94371.16;;;13.87;100.00
12077;BME280;12420;42.676;23.262;2023-05-21T01:59:22;94370.44;;;13.95;100.00
12077;BME280;12420;42.676;23.262;2023-05-21T02:01:49;94390.84;;;14.13;100.00
12077;BME280;12420;42.676;23.262;2023-05-21T02:04:15;94390.09;;;14.04;100.00
12077;BME280;12420;42.676;23.262;2023-05-21T02:06:42;94389.91;;;14.02;100.00
12077;BME280;12420;42.676;23.262;2023-05-21T02:09:09;94386.00;;;14.05;100.00
12077;BME280;12420;42.676;23.262;2023-05-21T02:11:36;94386.41;;;14.02;100.00
12077;BME280;12420;42.676;23.262;2023-05-21T02:14:04;94381.19;;;14.06;100.00
12077;BME280;12420;42.676;23.262;2023-05-21T02:16:32;94383.97;;;14.06;100.00
12077;BME280;12420;42.676;23.262;2023-05-21T02:18:58;94380.25;;;14.03;100.00
12077;BME280;12420;42.676;23.262;2023-05-21T02:21:25;94378.97;;;14.04;100.00
12077;BME280;12420;42.676;23.262;2023-05-21T02:23:52;94378.03;;;14.02;100.00
12077;BME280;12420;42.676;23.262;2023-05-21T02:26:19;94383.59;;;13.94;100.00
12077;BME280;12420;42.676;23.262;2023-05-21T02:28:46;94361.50;;;13.81;100.00
12077;BME280;12420;42.676;23.262;2023-05-21T02:31:15;94377.84;;;13.84;100.00
12077;BME280;12420;42.676;23.262;2023-05-21T02:33:42;94377.84;;;13.84;100.00
12077;BME280;12420;42.676;23.262;2023-05-21T02:36:09;94381.16;;;13.83;100.00
12077;BME280;12420;42.676;23.262;2023-05-21T02:38:37;94380.78;;;13.79;100.00
12077;BME280;12420;42.676;23.262;2023-05-21T02:41:05;94373.94;;;13.72;100.00
12077;BME280;12420;42.676;23.262;2023-05-21T02:43:32;94370.78;;;13.76;100.00
12077;BME280;12420;42.676;23.262;2023-05-21T02:45:59;94373.34;;;13.66;100.00
12077;BME280;12420;42.676;23.262;2023-05-21T02:48:27;94366.13;;;13.63;100.00
12077;BME280;12420;42.676;23.262;2023-05-21T02:50:53;94361.84;;;13.46;100.00
12077;BME280;12420;42.676;23.262;2023-05-21T02:53:20;94369.44;;;13.46;100.00
12077;BME280;12420;42.676;23.262;2023-05-21T02:55:49;94367.00;;;13.42;100.00
12077;BME280;12420;42.676;23.262;2023-05-21T02:58:15;94368.13;;;13.39;100.00
12077;BME280;12420;42.676;23.262;2023-05-21T03:00:42;94362.97;;;13.43;100.00
12077;BME280;12420;42.676;23.262;2023-05-21T03:03:09;94369.44;;;13.38;100.00
12077;BME280;12420;42.676;23.262;2023-05-21T03:05:38;94342.66;;;13.20;100.00
12077;BME280;12420;42.676;23.262;2023-05-21T03:08:05;94337.44;;;13.09;100.00
12077;BME280;12420;42.676;23.262;2023-05-21T03:10:32;94368.66;;;13.30;100.00
12077;BME280;12420;42.676;23.262;2023-05-21T03:12:59;94371.44;;;13.38;100.00
12077;BME280;12420;42.676;23.262;2023-05-21T03:15:29;94377.19;;;13.32;100.00
12077;BME280;12420;42.676;23.262;2023-05-21T03:17:57;94379.97;;;13.32;100.00
12077;BME280;12420;42.676;23.262;2023-05-21T03:20:24;94381.81;;;13.30;100.00
12077;BME280;12420;42.676;23.262;2023-05-21T03:22:53;94379.41;;;13.34;100.00
12077;BME280;12420;42.676;23.262;2023-05-21T03:25:20;94390.88;;;13.30;100.00
12077;BME280;12420;42.676;23.262;2023-05-21T03:27:49;94378.81;;;13.28;100.00
12077;BME280;12420;42.676;23.262;2023-05-21T03:30:16;94381.59;;;13.28;100.00
12077;BME280;12420;42.676;23.262;2023-05-21T03:32:43;94386.09;;;13.31;100.00
12077;BME280;12420;42.676;23.262;2023-05-21T03:35:10;94391.66;;;13.31;100.00
12077;BME280;12420;42.676;23.262;2023-05-21T03:37:37;94381.41;;;13.25;100.00
12077;BME280;12420;42.676;23.262;2023-05-21T03:40:06;94388.09;;;13.30;100.00
12077;BME280;12420;42.676;23.262;2023-05-21T03:42:33;94387.03;;;13.33;100.00
12077;BME280;12420;42.676;23.262;2023-05-21T03:45:00;94379.41;;;13.34;100.00
12077;BME280;12420;42.676;23.262;2023-05-21T03:47:26;94364.59;;;13.31;100.00
12077;BME280;12420;42.676;23.262;2023-05-21T03:49:53;94390.94;;;13.45;100.00
12077;BME280;12420;42.676;23.262;2023-05-21T03:52:20;94377.22;;;13.48;100.00
12077;BME280;12420;42.676;23.262;2023-05-21T03:54:47;94391.88;;;13.56;100.00
12077;BME280;12420;42.676;23.262;2023-05-21T03:57:15;94377.81;;;13.54;100.00
12077;BME280;12420;42.676;23.262;2023-05-21T03:59:41;94387.44;;;13.60;100.00
12077;BME280;12420;42.676;23.262;2023-05-21T04:02:08;94384.50;;;13.74;100.00
12077;BME280;12420;42.676;23.262;2023-05-21T04:04:35;94383.00;;;13.73;100.00
12077;BME280;12420;42.676;23.262;2023-05-21T04:07:01;94358.50;;;13.56;100.00
12077;BME280;12420;42.676;23.262;2023-05-21T04:09:30;94380.78;;;13.86;100.00
12077;BME280;12420;42.676;23.262;2023-05-21T04:11:58;94348.69;;;13.55;100.00
12077;BME280;12420;42.676;23.262;2023-05-21T04:14:26;94359.31;;;13.79;100.00
12077;BME280;12420;42.676;23.262;2023-05-21T04:16:53;94346.88;;;13.80;100.00
12077;BME280;12420;42.676;23.262;2023-05-21T04:19:21;94349.47;;;13.78;100.00
12077;BME280;12420;42.676;23.262;2023-05-21T04:21:47;94368.59;;;14.05;100.00
12077;BME280;12420;42.676;23.262;2023-05-21T04:24:14;94362.44;;;14.06;100.00
12077;BME280;12420;42.676;23.262;2023-05-21T04:26:40;94380.06;;;14.24;100.00
12077;BME280;12420;42.676;23.262;2023-05-21T04:29:08;94384.16;;;14.31;100.00
12077;BME280;12420;42.676;23.262;2023-05-21T04:31:37;94368.94;;;14.24;100.00
12077;BME280;12420;42.676;23.262;2023-05-21T04:34:04;94386.38;;;14.48;100.00
12077;BME280;12420;42.676;23.262;2023-05-21T04:36:30;94370.22;;;14.39;100.00
12077;BME280;12420;42.676;23.262;2023-05-21T04:38:58;94390.84;;;14.59;100.00
12077;BME280;12420;42.676;23.262;2023-05-21T04:41:24;94377.81;;;14.69;100.00
12077;BME280;12420;42.676;23.262;2023-05-21T04:43:53;94366.66;;;14.69;100.00
12077;BME280;12420;42.676;23.262;2023-05-21T04:46:20;94375.94;;;14.79;100.00
12077;BME280;12420;42.676;23.262;2023-05-21T04:48:52;94384.06;;;14.92;100.00
12077;BME280;12420;42.676;23.262;2023-05-21T04:51:19;94393.00;;;14.91;100.00
12077;BME280;12420;42.676;23.262;2023-05-21T04:53:47;94385.16;;;14.97;100.00
12077;BME280;12420;42.676;23.262;2023-05-21T04:56:15;94386.25;;;15.09;100.00
12077;BME280;12420;42.676;23.262;2023-05-21T04:58:42;94391.22;;;15.11;100.00
12077;BME280;12420;42.676;23.262;2023-05-21T05:01:09;94385.47;;;15.16;100.00
12077;BME280;12420;42.676;23.262;2023-05-21T05:03:36;94386.84;;;14.92;100.00
12077;BME280;12420;42.676;23.262;2023-05-21T05:06:05;94386.28;;;15.02;100.00
12077;BME280;12420;42.676;23.262;2023-05-21T05:08:33;94380.28;;;15.05;100.00
12077;BME280;12420;42.676;23.262;2023-05-21T05:11:00;94379.34;;;15.10;100.00
12077;BME280;12420;42.676;23.262;2023-05-21T05:13:27;94387.16;;;15.12;100.00
12077;BME280;12420;42.676;23.262;2023-05-21T05:15:53;94386.22;;;15.17;100.00
12077;BME280;12420;42.676;23.262;2023-05-21T05:18:21;94375.63;;;15.15;100.00
12077;BME280;12420;42.676;23.262;2023-05-21T05:20:48;94391.38;;;15.20;100.00
12077;BME280;12420;42.676;23.262;2023-05-21T05:23:16;94386.97;;;15.10;100.00
12077;BME280;12420;42.676;23.262;2023-05-21T05:25:43;94394.78;;;15.11;100.00
12077;BME280;12420;42.676;23.262;2023-05-21T05:28:10;94383.78;;;15.13;100.00
12077;BME280;12420;42.676;23.262;2023-05-21T05:30:37;94391.38;;;15.20;100.00
12077;BME280;12420;42.676;23.262;2023-05-21T05:33:04;94384.88;;;15.26;100.00
12077;BME280;12420;42.676;23.262;2023-05-21T05:35:30;94385.22;;;15.30;100.00
12077;BME280;12420;42.676;23.262;2023-05-21T05:37:58;94381.47;;;15.35;100.00
12077;BME280;12420;42.676;23.262;2023-05-21T05:40:26;94373.50;;;15.31;100.00
12077;BME280;12420;42.676;23.262;2023-05-21T05:42:52;94389.19;;;15.52;100.00
12077;BME280;12420;42.676;23.262;2023-05-21T05:45:19;94388.19;;;15.64;100.00
12077;BME280;12420;42.676;23.262;2023-05-21T05:47:46;94390.03;;;15.77;100.00
12077;BME280;12420;42.676;23.262;2023-05-21T05:50:13;94384.44;;;15.77;100.00
12077;BME280;12420;42.676;23.262;2023-05-21T05:52:39;94388.16;;;15.80;100.00
12077;BME280;12420;42.676;23.262;2023-05-21T05:55:07;94383.25;;;15.88;100.00
12077;BME280;12420;42.676;23.262;2023-05-21T05:57:35;94396.94;;;16.01;100.00
12077;BME280;12420;42.676;23.262;2023-05-21T06:00:03;94389.88;;;16.00;100.00
12077;BME280;12420;42.676;23.262;2023-05-21T06:02:29;94373.81;;;16.09;100.00
12077;BME280;12420;42.676;23.262;2023-05-21T06:04:56;94373.78;;;16.34;100.00
12077;BME280;12420;42.676;23.262;2023-05-21T06:07:23;94392.88;;;16.62;100.00
12077;BME280;12420;42.676;23.262;2023-05-21T06:09:50;94393.94;;;16.92;100.00
12077;BME280;12420;42.676;23.262;2023-05-21T06:12:17;94394.16;;;17.21;100.00
12077;BME280;12420;42.676;23.262;2023-05-21T06:14:45;94387.88;;;17.48;100.00
12077;BME280;12420;42.676;23.262;2023-05-21T06:17:13;94357.59;;;17.36;100.00
12077;BME280;12420;42.676;23.262;2023-05-21T06:19:40;94400.66;;;17.68;100.00
12077;BME280;12420;42.676;23.262;2023-05-21T06:22:07;94379.59;;;17.94;100.00
12077;BME280;12420;42.676;23.262;2023-05-21T06:24:33;94387.06;;;18.19;100.00
12077;BME280;12420;42.676;23.262;2023-05-21T06:27:00;94392.66;;;18.19;98.54
12077;BME280;12420;42.676;23.262;2023-05-21T06:29:28;94380.06;;;18.37;100.00
12077;BME280;12420;42.676;23.262;2023-05-21T06:31:56;94386.25;;;18.46;96.99
12077;BME280;12420;42.676;23.262;2023-05-21T06:34:23;94367.38;;;18.46;98.95
12077;BME280;12420;42.676;23.262;2023-05-21T06:36:50;94385.84;;;18.59;95.94
12077;BME280;12420;42.676;23.262;2023-05-21T06:39:16;94370.50;;;18.50;96.21
12077;BME280;12420;42.676;23.262;2023-05-21T06:41:43;94373.56;;;18.35;95.11
12077;BME280;12420;42.676;23.262;2023-05-21T06:44:10;94368.09;;;18.27;95.41
12077;BME280;12420;42.676;23.262;2023-05-21T06:46:37;94374.72;;;18.32;96.59
12077;BME280;12420;42.676;23.262;2023-05-21T06:49:05;94373.81;;;18.29;95.04
12077;BME280;12420;42.676;23.262;2023-05-21T06:51:32;94360.63;;;18.03;91.61
12077;BME280;12420;42.676;23.262;2023-05-21T06:53:59;94356.06;;;18.07;90.71
12077;BME280;12420;42.676;23.262;2023-05-21T06:56:26;94373.31;;;18.13;93.25
12077;BME280;12420;42.676;23.262;2023-05-21T06:58:52;94362.56;;;18.10;94.89
12077;BME280;12420;42.676;23.262;2023-05-21T07:01:19;94374.25;;;18.26;94.09
12077;BME280;12420;42.676;23.262;2023-05-21T07:03:47;94371.78;;;18.30;92.88
12077;BME280;12420;42.676;23.262;2023-05-21T07:06:15;94374.88;;;18.34;92.23
12077;BME280;12420;42.676;23.262;2023-05-21T07:08:42;94383.91;;;18.52;94.20
12077;BME280;12420;42.676;23.262;2023-05-21T07:11:09;94357.97;;;18.61;93.23
12077;BME280;12420;42.676;23.262;2023-05-21T07:13:35;94364.22;;;18.79;89.45
12077;BME280;12420;42.676;23.262;2023-05-21T07:16:02;94364.97;;;18.89;89.56
12077;BME280;12420;42.676;23.262;2023-05-21T07:18:31;94371.47;;;19.11;89.81
12077;BME280;12420;42.676;23.262;2023-05-21T07:20:58;94372.34;;;19.33;86.98
12077;BME280;12420;42.676;23.262;2023-05-21T07:23:27;94368.16;;;19.53;83.31
12077;BME280;12420;42.676;23.262;2023-05-21T07:25:54;94372.31;;;19.72;81.54
12077;BME280;12420;42.676;23.262;2023-05-21T07:28:20;94378.75;;;19.84;79.56
12077;BME280;12420;42.676;23.262;2023-05-21T07:30:47;94369.81;;;19.57;76.23
12077;BME280;12420;42.676;23.262;2023-05-21T07:33:14;94356.84;;;19.22;79.21
12077;BME280;12420;42.676;23.262;2023-05-21T07:35:41;94315.50;;;19.13;80.08
12077;BME280;12420;42.676;23.262;2023-05-21T07:38:07;94370.97;;;19.63;77.80
12077;BME280;12420;42.676;23.262;2023-05-21T07:40:38;94372.16;;;19.80;77.66
12077;BME280;12420;42.676;23.262;2023-05-21T07:43:04;94375.06;;;19.82;79.43
12077;BME280;12420;42.676;23.262;2023-05-21T07:45:31;94362.94;;;19.89;77.52
12077;BME280;12420;42.676;23.262;2023-05-21T07:47:58;94356.13;;;19.92;78.06
12077;BME280;12420;42.676;23.262;2023-05-21T07:50:25;94365.22;;;20.12;78.70
12077;BME280;12420;42.676;23.262;2023-05-21T07:52:52;94347.03;;;20.13;78.30
12077;BME280;12420;42.676;23.262;2023-05-21T07:55:19;94367.91;;;20.41;78.17
12077;BME280;12420;42.676;23.262;2023-05-21T07:57:47;94363.25;;;20.55;71.50
12077;BME280;12420;42.676;23.262;2023-05-21T08:00:16;94353.31;;;20.33;69.46
12077;BME280;12420;42.676;23.262;2023-05-21T08:02:43;94365.28;;;20.33;72.72
12077;BME280;12420;42.676;23.262;2023-05-21T08:05:10;94362.13;;;20.39;71.42
12077;BME280;12420;42.676;23.262;2023-05-21T08:07:37;94358.78;;;20.62;70.67
12077;BME280;12420;42.676;23.262;2023-05-21T08:10:05;94360.91;;;20.73;68.90
12077;BME280;12420;42.676;23.262;2023-05-21T08:12:32;94365.47;;;20.57;65.43
12077;BME280;12420;42.676;23.262;2023-05-21T08:15:00;94355.97;;;20.62;60.85
12077;BME280;12420;42.676;23.262;2023-05-21T08:17:27;94357.50;;;20.75;63.16
12077;BME280;12420;42.676;23.262;2023-05-21T08:19:54;94358.22;;;20.54;59.56
12077;BME280;12420;42.676;23.262;2023-05-21T08:22:20;94371.91;;;20.69;58.74
12077;BME280;12420;42.676;23.262;2023-05-21T08:24:47;94364.00;;;20.56;56.46
12077;BME280;12420;42.676;23.262;2023-05-21T08:27:14;94376.41;;;20.53;57.24
12077;BME280;12420;42.676;23.262;2023-05-21T08:29:41;94363.28;;;20.46;57.86
12077;BME280;12420;42.676;23.262;2023-05-21T08:32:10;94358.59;;;20.38;57.86
12077;BME280;12420;42.676;23.262;2023-05-21T08:34:37;94364.63;;;20.45;57.63
12077;BME280;12420;42.676;23.262;2023-05-21T08:37:03;94358.50;;;20.58;58.88
12077;BME280;12420;42.676;23.262;2023-05-21T08:39:30;94333.81;;;20.25;58.74
12077;BME280;12420;42.676;23.262;2023-05-21T08:42:03;94347.75;;;20.45;59.13
12077;BME280;12420;42.676;23.262;2023-05-21T08:44:36;94369.63;;;20.56;56.16
12077;BME280;12420;42.676;23.262;2023-05-21T08:47:12;94364.53;;;20.64;57.17
12077;BME280;12420;42.676;23.262;2023-05-21T08:49:41;94365.88;;;20.63;58.45
12077;BME280;12420;42.676;23.262;2023-05-21T08:52:10;94358.97;;;20.76;55.85
12077;BME280;12420;42.676;23.262;2023-05-21T08:54:37;94359.41;;;20.82;54.53
12077;BME280;12420;42.676;23.262;2023-05-21T08:57:04;94354.84;;;20.77;55.01
12077;BME280;12420;42.676;23.262;2023-05-21T08:59:31;94365.16;;;20.84;55.78
12077;BME280;12420;42.676;23.262;2023-05-21T09:02:00;94364.41;;;20.84;54.44
12077;BME280;12420;42.676;23.262;2023-05-21T09:04:30;94360.78;;;20.93;53.57
12077;BME280;12420;42.676;23.262;2023-05-21T09:06:57;94353.81;;;21.15;54.73
12077;BME280;12420;42.676;23.262;2023-05-21T09:09:31;94356.41;;;21.23;54.63
12077;BME280;12420;42.676;23.262;2023-05-21T09:11:59;94354.31;;;21.23;53.78
12077;BME280;12420;42.676;23.262;2023-05-21T09:14:25;94348.22;;;21.27;55.37
12077;BME280;12420;42.676;23.262;2023-05-21T09:16:53;94364.38;;;21.27;57.38
12077;BME280;12420;42.676;23.262;2023-05-21T09:19:19;94360.69;;;21.24;57.76
12077;BME280;12420;42.676;23.262;2023-05-21T09:21:49;94332.13;;;20.85;57.80
12077;BME280;12420;42.676;23.262;2023-05-21T09:24:16;94364.94;;;21.13;58.41
12077;BME280;12420;42.676;23.262;2023-05-21T09:26:46;94363.47;;;20.91;60.11
12077;BME280;12420;42.676;23.262;2023-05-21T09:29:13;94361.53;;;20.93;56.92
12077;BME280;12420;42.676;23.262;2023-05-21T09:31:42;94364.03;;;20.99;55.96
12077;BME280;12420;42.676;23.262;2023-05-21T09:34:09;94361.25;;;21.11;55.02
12077;BME280;12420;42.676;23.262;2023-05-21T09:36:36;94356.31;;;21.33;59.81
12077;BME280;12420;42.676;23.262;2023-05-21T09:39:05;94364.22;;;21.46;58.04
12077;BME280;12420;42.676;23.262;2023-05-21T09:41:32;94354.56;;;21.49;55.46
12077;BME280;12420;42.676;23.262;2023-05-21T09:44:00;94349.00;;;21.39;52.71
12077;BME280;12420;42.676;23.262;2023-05-21T09:46:36;94356.38;;;21.44;51.12
12077;BME280;12420;42.676;23.262;2023-05-21T09:49:03;94352.88;;;21.34;51.51
12077;BME280;12420;42.676;23.262;2023-05-21T09:51:30;94353.44;;;21.42;51.32
12077;BME280;12420;42.676;23.262;2023-05-21T09:53:57;94351.88;;;21.51;50.39
12077;BME280;12420;42.676;23.262;2023-05-21T09:56:26;94365.59;;;21.45;48.58
12077;BME280;12420;42.676;23.262;2023-05-21T09:58:56;94350.78;;;21.56;50.66
12077;BME280;12420;42.676;23.262;2023-05-21T10:01:24;94345.56;;;21.74;49.86
12077;BME280;12420;42.676;23.262;2023-05-21T10:03:53;94336.25;;;21.72;48.98
12077;BME280;12420;42.676;23.262;2023-05-21T10:06:23;94340.31;;;21.92;48.58
12077;BME280;12420;42.676;23.262;2023-05-21T10:08:52;94344.19;;;21.63;49.41
12077;BME280;12420;42.676;23.262;2023-05-21T10:11:21;94335.13;;;21.65;49.38
12077;BME280;12420;42.676;23.262;2023-05-21T10:13:54;94339.56;;;21.80;49.58
12077;BME280;12420;42.676;23.262;2023-05-21T10:16:22;94343.97;;;21.83;48.33
12077;BME280;12420;42.676;23.262;2023-05-21T10:18:49;94343.63;;;21.88;46.76
12077;BME280;12420;42.676;23.262;2023-05-21T10:21:18;94342.06;;;22.09;48.24
12077;BME280;12420;42.676;23.262;2023-05-21T10:23:47;94335.44;;;22.04;46.58
12077;BME280;12420;42.676;23.262;2023-05-21T10:26:14;94328.81;;;22.11;49.98
12077;BME280;12420;42.676;23.262;2023-05-21T10:28:42;94324.41;;;22.08;48.74
12077;BME280;12420;42.676;23.262;2023-05-21T10:31:11;94333.22;;;22.15;47.46
12077;BME280;12420;42.676;23.262;2023-05-21T10:33:37;94320.25;;;22.33;48.05
12077;BME280;12420;42.676;23.262;2023-05-21T10:36:06;94303.81;;;22.41;49.73
12077;BME280;12420;42.676;23.262;2023-05-21T10:38:32;94327.09;;;22.53;48.67
12077;BME280;12420;42.676;23.262;2023-05-21T10:41:00;94324.25;;;22.77;46.69
12077;BME280;12420;42.676;23.262;2023-05-21T10:43:44;94318.16;;;23.06;47.23
12077;BME280;12420;42.676;23.262;2023-05-21T10:46:44;94336.22;;;23.01;47.77
12077;BME280;12420;42.676;23.262;2023-05-21T10:49:33;94320.34;;;22.59;45.02
12077;BME280;12420;42.676;23.262;2023-05-21T10:52:07;94325.66;;;22.41;47.03
12077;BME280;12420;42.676;23.262;2023-05-21T10:55:11;94325.66;;;22.29;46.56
12077;BME280;12420;42.676;23.262;2023-05-21T10:57:58;94323.41;;;21.92;48.68
12077;BME280;12420;42.676;23.262;2023-05-21T11:00:28;94320.22;;;21.74;48.36
12077;BME280;12420;42.676;23.262;2023-05-21T11:02:59;94328.75;;;21.64;49.75
12077;BME280;12420;42.676;23.262;2023-05-21T11:05:37;94305.91;;;21.37;50.67
12077;BME280;12420;42.676;23.262;2023-05-21T11:08:18;94322.41;;;21.64;51.92
12077;BME280;12420;42.676;23.262;2023-05-21T11:10:51;94321.16;;;21.55;50.60
12077;BME280;12420;42.676;23.262;2023-05-21T11:13:18;94326.06;;;21.66;51.50
12077;BME280;12420;42.676;23.262;2023-05-21T11:16:12;94325.81;;;21.62;52.05
12077;BME280;12420;42.676;23.262;2023-05-21T11:19:02;94315.13;;;21.49;52.11
12077;BME280;12420;42.676;23.262;2023-05-21T11:21:30;94304.25;;;21.43;54.08
12077;BME280;12420;42.676;23.262;2023-05-21T11:24:04;94313.63;;;21.36;53.69
12077;BME280;12420;42.676;23.262;2023-05-21T11:26:58;94321.50;;;21.16;53.96
12077;BME280;12420;42.676;23.262;2023-05-21T11:29:38;94315.91;;;21.28;54.44
12077;BME280;12420;42.676;23.262;2023-05-21T11:32:07;94314.34;;;21.37;55.27
12077;BME280;12420;42.676;23.262;2023-05-21T11:34:41;94315.03;;;21.59;54.32
12077;BME280;12420;42.676;23.262;2023-05-21T11:37:37;94301.78;;;21.50;53.52
12077;BME280;12420;42.676;23.262;2023-05-21T11:40:16;94274.53;;;21.19;53.25
12077;BME280;12420;42.676;23.262;2023-05-21T11:42:48;94296.13;;;21.38;53.04
12077;BME280;12420;42.676;23.262;2023-05-21T11:45:16;94277.97;;;21.17;55.29
12077;BME280;12420;42.676;23.262;2023-05-21T11:47:43;94295.63;;;21.30;55.72
12077;BME280;12420;42.676;23.262;2023-05-21T11:50:13;94297.78;;;21.19;54.88
12077;BME280;12420;42.676;23.262;2023-05-21T11:52:40;94296.31;;;21.18;54.99
12077;BME280;12420;42.676;23.262;2023-05-21T11:55:08;94280.00;;;21.05;54.52
12077;BME280;12420;42.676;23.262;2023-05-21T11:57:36;94298.31;;;21.28;55.91
12077;BME280;12420;42.676;23.262;2023-05-21T12:00:03;94292.19;;;21.31;55.44
12077;BME280;12420;42.676;23.262;2023-05-21T12:02:42;94287.41;;;21.34;53.87
12077;BME280;12420;42.676;23.262;2023-05-21T12:05:09;94250.00;;;20.98;55.61
12077;BME280;12420;42.676;23.262;2023-05-21T12:07:37;94279.00;;;21.00;55.54
12077;BME280;12420;42.676;23.262;2023-05-21T12:10:05;94285.34;;;21.01;56.00
12077;BME280;12420;42.676;23.262;2023-05-21T12:12:32;94279.63;;;20.99;56.47
12077;BME280;12420;42.676;23.262;2023-05-21T12:15:00;94278.28;;;20.78;58.45
12077;BME280;12420;42.676;23.262;2023-05-21T12:17:27;94281.06;;;21.00;60.62
12077;BME280;12420;42.676;23.262;2023-05-21T12:19:56;94287.91;;;20.97;59.15
12077;BME280;12420;42.676;23.262;2023-05-21T12:22:23;94283.47;;;20.94;59.66
12077;BME280;12420;42.676;23.262;2023-05-21T12:24:53;94261.16;;;20.74;61.88
12077;BME280;12420;42.676;23.262;2023-05-21T12:27:22;94278.03;;;20.74;59.97
12077;BME280;12420;42.676;23.262;2023-05-21T12:29:50;94271.88;;;20.66;60.91
12077;BME280;12420;42.676;23.262;2023-05-21T12:32:20;94285.59;;;20.72;60.03
12077;BME280;12420;42.676;23.262;2023-05-21T12:34:48;94282.38;;;20.66;60.65
12077;BME280;12420;42.676;23.262;2023-05-21T12:37:17;94268.66;;;20.60;61.52
12077;BME280;12420;42.676;23.262;2023-05-21T12:39:46;94266.25;;;20.66;61.81
12077;BME280;12420;42.676;23.262;2023-05-21T12:42:24;94207.69;;;20.20;62.81
12077;BME280;12420;42.676;23.262;2023-05-21T12:44:53;94283.38;;;20.49;63.72
12077;BME280;12420;42.676;23.262;2023-05-21T12:47:22;94254.25;;;20.44;63.29
12077;BME280;12420;42.676;23.262;2023-05-21T12:49:53;94264.53;;;20.61;62.75
12077;BME280;12420;42.676;23.262;2023-05-21T12:52:22;94248.56;;;20.54;62.21
12077;BME280;12420;42.676;23.262;2023-05-21T12:54:50;94260.22;;;20.60;63.61